createdAt,value
2023-04-26T00:00:21.860Z,82.70
2023-04-26T00:03:24.915Z,82.80
2023-04-26T00:06:27.565Z,82.90
2023-04-26T00:09:30.011Z,83.10
2023-04-26T00:12:33.420Z,83.60
2023-04-26T00:15:35.609Z,83.90
2023-04-26T00:18:37.726Z,84.40
2023-04-26T00:21:40.491Z,84.00
2023-04-26T00:24:43.514Z,84.20
2023-04-26T00:27:45.862Z,84.50
2023-04-26T00:30:48.986Z,84.40
2023-04-26T00:33:52.088Z,85.10
2023-04-26T00:36:54.161Z,85.50
2023-04-26T00:39:57.507Z,85.20
2023-04-26T00:43:00.631Z,85.50
2023-04-26T00:46:03.443Z,85.50
2023-04-26T00:49:05.644Z,85.80
2023-04-26T00:52:08.105Z,86.20
2023-04-26T00:55:10.570Z,86.40
2023-04-26T00:58:12.839Z,86.10
2023-04-26T01:01:15.137Z,86.30
2023-04-26T01:04:19.373Z,86.20
2023-04-26T01:07:21.553Z,86.00
2023-04-26T01:10:24.165Z,86.30
2023-04-26T01:13:26.985Z,86.60
2023-04-26T01:16:30.180Z,87.00
2023-04-26T01:19:32.734Z,87.30
2023-04-26T01:22:35.353Z,87.20
2023-04-26T01:25:37.730Z,87.50
2023-04-26T01:28:39.806Z,87.90
2023-04-26T01:31:42.036Z,88.70
2023-04-26T01:34:44.186Z,89.10
2023-04-26T01:37:46.461Z,89.20
2023-04-26T01:40:48.589Z,89.40
2023-04-26T01:43:50.826Z,89.60
2023-04-26T01:46:52.961Z,90.10
2023-04-26T01:49:55.207Z,90.40
2023-04-26T01:52:57.566Z,90.40
2023-04-26T01:56:03.301Z,90.40
2023-04-26T01:59:05.495Z,90.40
2023-04-26T02:02:07.754Z,90.20
2023-04-26T02:05:12.611Z,90.20
2023-04-26T02:08:14.927Z,90.10
2023-04-26T02:11:17.230Z,90.00
2023-04-26T02:14:20.458Z,90.00
2023-04-26T02:17:23.018Z,90.10
2023-04-26T02:20:25.152Z,90.00
2023-04-26T02:23:27.406Z,90.00
2023-04-26T02:26:29.544Z,90.10
2023-04-26T02:29:43.521Z,90.10
2023-04-26T02:32:46.349Z,90.20
2023-04-26T02:35:48.705Z,90.20
2023-04-26T02:38:52.037Z,90.20
2023-04-26T02:41:54.371Z,90.30
2023-04-26T02:44:56.656Z,90.20
2023-04-26T02:47:59.013Z,90.40
2023-04-26T02:51:01.855Z,90.50
2023-04-26T02:54:06.380Z,90.50
2023-04-26T02:57:09.684Z,90.50
2023-04-26T03:00:14.385Z,90.60
2023-04-26T03:03:16.988Z,90.50
2023-04-26T03:06:20.434Z,90.70
2023-04-26T03:09:22.568Z,90.80
2023-04-26T03:12:24.712Z,90.90
2023-04-26T03:15:26.882Z,90.90
2023-04-26T03:18:29.148Z,91.00
2023-04-26T03:21:32.120Z,91.20
2023-04-26T03:24:34.182Z,91.30
2023-04-26T03:27:36.254Z,91.30
2023-04-26T03:30:38.676Z,91.50
2023-04-26T03:33:40.892Z,91.90
2023-04-26T03:36:43.042Z,91.60
2023-04-26T03:39:45.162Z,91.60
2023-04-26T03:42:47.287Z,91.70
2023-04-26T03:45:50.468Z,91.80
2023-04-26T03:48:53.106Z,91.80
2023-04-26T03:51:55.553Z,91.80
2023-04-26T03:54:57.683Z,91.60
2023-04-26T03:57:59.952Z,91.80
2023-04-26T04:01:02.109Z,91.90
2023-04-26T04:04:04.568Z,92.20
2023-04-26T04:07:07.051Z,92.30
2023-04-26T04:10:10.836Z,92.50
2023-04-26T04:13:13.117Z,92.50
2023-04-26T04:16:19.223Z,92.60
2023-04-26T04:19:24.408Z,92.40
2023-04-26T04:22:26.636Z,92.60
2023-04-26T04:25:30.592Z,92.70
2023-04-26T04:28:34.537Z,92.60
2023-04-26T04:31:37.323Z,92.80
2023-04-26T04:34:39.589Z,93.20
2023-04-26T04:37:41.808Z,93.00
2023-04-26T04:40:43.991Z,93.10
2023-04-26T04:43:46.602Z,92.90
2023-04-26T04:46:48.823Z,93.50
2023-04-26T04:49:51.105Z,93.70
2023-04-26T04:52:53.221Z,93.40
2023-04-26T04:55:55.458Z,93.60
2023-04-26T04:58:57.885Z,93.60
2023-04-26T05:02:00.140Z,93.50
2023-04-26T05:05:03.131Z,93.40
2023-04-26T05:08:07.851Z,93.30
2023-04-26T05:11:10.029Z,93.30
2023-04-26T05:14:12.272Z,93.40
2023-04-26T05:17:14.501Z,93.40
2023-04-26T05:20:16.703Z,93.30
2023-04-26T05:23:18.816Z,93.30
2023-04-26T05:26:22.042Z,93.40
2023-04-26T05:29:24.216Z,93.20
2023-04-26T05:32:26.537Z,93.50
2023-04-26T05:35:29.141Z,93.40
2023-04-26T05:38:31.473Z,93.40
2023-04-26T05:41:33.589Z,93.40
2023-04-26T05:44:36.231Z,93.50
2023-04-26T05:47:38.591Z,93.60
2023-04-26T05:50:41.030Z,93.70
2023-04-26T05:53:43.208Z,93.70
2023-04-26T05:56:45.858Z,93.80
2023-04-26T05:59:48.178Z,93.80
2023-04-26T06:02:50.660Z,93.80
2023-04-26T06:05:52.964Z,93.80
2023-04-26T06:08:55.248Z,93.80
2023-04-26T06:11:57.408Z,93.80
2023-04-26T06:14:59.556Z,93.80
2023-04-26T06:18:01.857Z,94.10
2023-04-26T06:21:04.256Z,94.40
2023-04-26T06:24:06.800Z,93.40
2023-04-26T06:27:09.109Z,92.50
2023-04-26T06:30:11.742Z,91.60
2023-04-26T06:33:14.665Z,90.80
2023-04-26T06:36:16.994Z,90.40
2023-04-26T06:39:19.129Z,89.40
2023-04-26T06:42:21.191Z,88.50
2023-04-26T06:45:23.558Z,86.00
2023-04-26T06:48:25.792Z,84.90
2023-04-26T06:51:29.576Z,83.60
2023-04-26T06:54:32.007Z,80.80
2023-04-26T06:57:34.239Z,78.60
2023-04-26T07:00:36.416Z,77.20
2023-04-26T07:03:42.808Z,76.50
2023-04-26T07:06:45.134Z,73.70
2023-04-26T07:09:47.489Z,72.00
2023-04-26T07:12:49.790Z,70.40
2023-04-26T07:15:52.015Z,68.60
2023-04-26T07:18:54.388Z,67.60
2023-04-26T07:21:56.547Z,66.80
2023-04-26T07:24:58.772Z,65.90
2023-04-26T07:28:01.052Z,65.60
2023-04-26T07:31:03.421Z,64.10
2023-04-26T07:34:05.714Z,62.60
2023-04-26T07:37:08.086Z,61.90
2023-04-26T07:40:12.145Z,62.70
2023-04-26T07:43:15.786Z,61.00
2023-04-26T07:46:18.113Z,60.00
2023-04-26T07:49:20.413Z,58.90
2023-04-26T07:52:22.691Z,57.70
2023-04-26T07:55:25.079Z,55.40
2023-04-26T07:58:27.226Z,57.70
2023-04-26T08:01:30.267Z,57.80
2023-04-26T08:04:34.463Z,54.80
2023-04-26T08:07:36.870Z,52.70
2023-04-26T08:10:41.900Z,51.90
2023-04-26T08:13:44.309Z,50.00
2023-04-26T08:16:46.629Z,48.20
2023-04-26T08:19:48.888Z,50.00
2023-04-26T08:22:58.504Z,49.40
2023-04-26T08:26:00.758Z,47.40
2023-04-26T08:29:02.977Z,45.40
2023-04-26T08:32:05.281Z,46.40
2023-04-26T08:35:09.373Z,46.00
2023-04-26T08:38:11.567Z,45.80
2023-04-26T08:41:19.031Z,45.70
2023-04-26T08:44:25.295Z,45.40
2023-04-26T08:47:40.132Z,43.10
2023-04-26T08:50:46.847Z,44.80
2023-04-26T08:53:51.878Z,45.70
2023-04-26T08:56:56.592Z,45.50
2023-04-26T08:59:58.981Z,45.50
2023-04-26T09:03:01.612Z,46.50
2023-04-26T09:06:06.626Z,43.70
2023-04-26T09:09:11.398Z,44.40
2023-04-26T09:12:13.687Z,42.60
2023-04-26T09:15:16.368Z,41.70
2023-04-26T09:18:23.438Z,43.60
2023-04-26T09:21:25.972Z,43.20
2023-04-26T09:24:28.112Z,47.10
2023-04-26T09:27:41.581Z,45.10
2023-04-26T09:30:43.577Z,43.30
2023-04-26T09:33:59.290Z,43.20
2023-04-26T09:37:01.414Z,46.00
2023-04-26T09:40:09.487Z,44.90
2023-04-26T09:43:13.576Z,46.40
2023-04-26T09:46:26.433Z,47.30
2023-04-26T09:49:33.773Z,48.50
2023-04-26T09:52:44.640Z,49.30
2023-04-26T09:55:48.626Z,49.00
2023-04-26T09:58:53.738Z,48.50
2023-04-26T10:02:05.335Z,47.00
2023-04-26T10:05:07.760Z,47.70
2023-04-26T10:08:11.758Z,46.70
2023-04-26T10:11:14.154Z,46.50
2023-04-26T10:14:16.526Z,46.30
2023-04-26T10:17:21.052Z,47.00
2023-04-26T10:20:27.302Z,46.90
2023-04-26T10:23:29.936Z,44.70
2023-04-26T10:26:55.046Z,44.30
2023-04-26T10:29:58.822Z,44.30
2023-04-26T10:33:00.957Z,45.40
2023-04-26T10:36:08.770Z,45.80
2023-04-26T10:39:25.221Z,44.50
2023-04-26T10:42:32.450Z,45.00
2023-04-26T10:45:34.896Z,44.60
2023-04-26T10:48:37.357Z,42.30
2023-04-26T10:51:39.502Z,44.00
2023-04-26T10:54:55.997Z,43.30
2023-04-26T10:57:58.373Z,43.20
2023-04-26T11:01:18.214Z,40.40
2023-04-26T11:04:20.908Z,40.10
2023-04-26T11:07:38.517Z,43.40
2023-04-26T11:10:42.485Z,41.30
2023-04-26T11:13:44.700Z,41.80
2023-04-26T11:16:46.836Z,40.20
2023-04-26T11:19:48.919Z,42.20
2023-04-26T11:22:51.788Z,41.00
2023-04-26T11:25:55.245Z,40.10
2023-04-26T11:28:57.234Z,41.30
2023-04-26T11:31:59.711Z,43.60
2023-04-26T11:35:02.771Z,44.70
2023-04-26T11:38:05.908Z,46.00
2023-04-26T11:41:08.534Z,46.60
2023-04-26T11:44:12.859Z,47.40
2023-04-26T11:47:15.137Z,48.10
2023-04-26T11:50:18.227Z,49.00
2023-04-26T11:53:20.458Z,47.20
2023-04-26T11:56:23.268Z,47.60
2023-04-26T11:59:30.002Z,48.80
2023-04-26T12:02:32.460Z,48.90
2023-04-26T12:05:34.681Z,50.70
2023-04-26T12:08:37.047Z,49.80
2023-04-26T12:11:40.651Z,48.80
2023-04-26T12:14:42.741Z,48.20
2023-04-26T12:18:15.700Z,49.30
2023-04-26T12:21:18.486Z,49.10
2023-04-26T12:24:26.585Z,49.00
2023-04-26T12:27:28.864Z,49.20
2023-04-26T12:30:31.805Z,46.00
2023-04-26T12:33:34.479Z,47.20
2023-04-26T12:36:36.785Z,48.00
2023-04-26T12:39:39.065Z,49.20
2023-04-26T12:42:41.312Z,49.60
2023-04-26T12:45:43.702Z,48.70
2023-04-26T12:48:46.856Z,49.20
2023-04-26T12:51:49.384Z,48.90
2023-04-26T12:54:51.754Z,49.40
2023-04-26T12:57:54.013Z,48.50
2023-04-26T13:00:56.444Z,48.50
2023-04-26T13:04:01.008Z,48.80
2023-04-26T13:07:03.372Z,46.90
2023-04-26T13:10:07.195Z,46.30
2023-04-26T13:13:09.426Z,46.80
2023-04-26T13:16:12.938Z,46.50
2023-04-26T13:19:16.240Z,46.50
2023-04-26T13:22:18.812Z,46.40
2023-04-26T13:25:21.699Z,47.30
2023-04-26T13:28:24.757Z,47.00
2023-04-26T13:31:27.082Z,46.80
2023-04-26T13:34:31.023Z,46.20
2023-04-26T13:37:33.323Z,45.70
2023-04-26T13:40:37.299Z,44.20
2023-04-26T13:43:39.685Z,43.00
2023-04-26T13:46:42.768Z,43.90
2023-04-26T13:49:45.186Z,42.70
2023-04-26T13:52:48.720Z,43.60
2023-04-26T13:55:50.962Z,42.90
2023-04-26T13:59:00.273Z,45.40
2023-04-26T14:02:02.601Z,46.50
2023-04-26T14:05:05.305Z,45.90
2023-04-26T14:08:08.431Z,46.60
2023-04-26T14:11:12.253Z,47.40
2023-04-26T14:14:14.297Z,47.30
2023-04-26T14:17:16.573Z,45.50
2023-04-26T14:20:19.875Z,44.60
2023-04-26T14:23:22.097Z,43.30
2023-04-26T14:26:27.362Z,43.20
2023-04-26T14:29:29.646Z,42.10
2023-04-26T14:32:31.859Z,42.70
2023-04-26T14:35:34.052Z,44.00
2023-04-26T14:38:36.926Z,45.30
2023-04-26T14:41:39.009Z,45.90
2023-04-26T14:44:41.669Z,45.40
2023-04-26T14:47:44.024Z,45.50
2023-04-26T14:50:46.335Z,45.00
2023-04-26T14:53:48.457Z,46.00
2023-04-26T14:56:51.633Z,45.70
2023-04-26T14:59:54.674Z,44.10
2023-04-26T15:02:57.073Z,45.70
2023-04-26T15:06:00.226Z,47.00
2023-04-26T15:09:02.492Z,47.80
2023-04-26T15:12:05.143Z,49.00
2023-04-26T15:15:07.794Z,49.70
2023-04-26T15:18:10.037Z,51.70
2023-04-26T15:21:19.333Z,52.70
2023-04-26T15:24:21.541Z,55.10
2023-04-26T15:27:25.300Z,55.30
2023-04-26T15:30:27.592Z,56.00
2023-04-26T15:33:31.290Z,57.10
2023-04-26T15:36:33.416Z,57.70
2023-04-26T15:39:35.763Z,58.30
2023-04-26T15:42:37.912Z,58.80
2023-04-26T15:45:40.077Z,58.40
2023-04-26T15:48:42.203Z,58.30
2023-04-26T15:51:44.382Z,58.60
2023-04-26T15:54:47.237Z,58.40
2023-04-26T15:57:49.487Z,58.50
2023-04-26T16:00:52.062Z,58.30
2023-04-26T16:03:54.389Z,57.90
2023-04-26T16:06:59.812Z,57.30
2023-04-26T16:10:02.012Z,57.00
2023-04-26T16:13:04.182Z,58.20
2023-04-26T16:16:10.829Z,58.30
2023-04-26T16:19:13.258Z,58.70
2023-04-26T16:22:15.445Z,58.80
2023-04-26T16:25:17.611Z,57.30
2023-04-26T16:28:19.716Z,57.80
2023-04-26T16:31:22.541Z,56.50
2023-04-26T16:34:24.718Z,56.00
2023-04-26T16:37:26.794Z,57.40
2023-04-26T16:40:29.121Z,56.00
2023-04-26T16:43:32.807Z,56.90
2023-04-26T16:46:35.136Z,57.20
2023-04-26T16:49:38.695Z,56.50
2023-04-26T16:52:40.884Z,55.20
2023-04-26T16:55:43.141Z,54.80
2023-04-26T16:58:45.372Z,52.60
2023-04-26T17:01:47.686Z,53.10
2023-04-26T17:04:50.627Z,51.80
2023-04-26T17:07:52.868Z,52.20
2023-04-26T17:10:55.046Z,51.10
2023-04-26T17:13:57.407Z,51.60
2023-04-26T17:16:59.774Z,51.70
2023-04-26T17:20:02.049Z,52.40
2023-04-26T17:23:04.641Z,51.60
2023-04-26T17:26:06.942Z,51.10
2023-04-26T17:29:09.182Z,50.90
2023-04-26T17:32:11.504Z,50.50
2023-04-26T17:35:14.219Z,50.50
2023-04-26T17:38:16.420Z,49.20
2023-04-26T17:41:19.611Z,49.20
2023-04-26T17:44:21.774Z,49.10
2023-04-26T17:47:24.145Z,50.50
2023-04-26T17:50:26.423Z,52.40
2023-04-26T17:53:28.609Z,54.10
2023-04-26T17:56:30.697Z,56.50
2023-04-26T17:59:33.174Z,58.20
2023-04-26T18:02:36.524Z,60.30
2023-04-26T18:05:39.192Z,60.60
2023-04-26T18:08:42.109Z,62.50
2023-04-26T18:11:47.984Z,62.90
2023-04-26T18:14:50.169Z,64.00
2023-04-26T18:17:52.247Z,63.70
2023-04-26T18:20:54.363Z,63.60
2023-04-26T18:23:56.538Z,63.30
2023-04-26T18:26:58.603Z,63.40
2023-04-26T18:30:00.986Z,63.90
2023-04-26T18:33:03.200Z,63.90
2023-04-26T18:36:05.936Z,64.00
2023-04-26T18:39:08.304Z,64.30
2023-04-26T18:42:20.077Z,65.10
2023-04-26T18:45:26.155Z,65.50
2023-04-26T18:48:28.395Z,65.10
2023-04-26T18:51:31.546Z,65.30
2023-04-26T18:54:33.820Z,65.40
2023-04-26T18:57:36.211Z,65.90
2023-04-26T19:00:38.401Z,65.70
2023-04-26T19:03:41.992Z,66.60
2023-04-26T19:06:44.352Z,67.20
2023-04-26T19:09:54.054Z,67.80
2023-04-26T19:12:57.904Z,67.60
2023-04-26T19:16:00.173Z,67.90
2023-04-26T19:19:03.374Z,69.20
2023-04-26T19:22:05.549Z,69.60
2023-04-26T19:25:08.252Z,68.30
2023-04-26T19:28:10.407Z,68.20
2023-04-26T19:31:12.907Z,67.80
2023-04-26T19:34:15.214Z,68.00
2023-04-26T19:37:17.398Z,67.90
2023-04-26T19:40:19.542Z,68.20
2023-04-26T19:43:21.931Z,68.50
2023-04-26T19:46:24.145Z,68.20
2023-04-26T19:49:28.942Z,68.40
2023-04-26T19:52:31.482Z,68.30
2023-04-26T19:55:33.682Z,68.20
2023-04-26T19:58:35.934Z,68.60
2023-04-26T20:01:39.135Z,69.90
2023-04-26T20:04:41.609Z,70.10
2023-04-26T20:07:43.882Z,69.50
2023-04-26T20:10:46.280Z,71.30
2023-04-26T20:13:48.468Z,71.80
2023-04-26T20:16:51.875Z,71.30
2023-04-26T20:19:54.060Z,72.40
2023-04-26T20:22:56.233Z,71.00
2023-04-26T20:25:58.950Z,72.40
2023-04-26T20:29:01.513Z,72.50
2023-04-26T20:32:03.997Z,72.10
2023-04-26T20:35:07.152Z,71.60
2023-04-26T20:38:09.811Z,72.10
2023-04-26T20:41:12.107Z,71.60
2023-04-26T20:44:14.710Z,72.20
2023-04-26T20:47:18.627Z,71.50
2023-04-26T20:50:21.071Z,71.70
2023-04-26T20:53:23.254Z,72.40
2023-04-26T20:56:25.568Z,70.70
2023-04-26T20:59:27.965Z,70.40
2023-04-26T21:02:30.434Z,69.10
2023-04-26T21:05:32.669Z,68.30
2023-04-26T21:08:36.812Z,67.10
2023-04-26T21:11:39.897Z,66.50
2023-04-26T21:14:42.117Z,66.00
2023-04-26T21:17:44.456Z,66.00
2023-04-26T21:20:46.581Z,66.00
2023-04-26T21:23:48.822Z,66.20
2023-04-26T21:26:51.070Z,65.60
2023-04-26T21:29:54.610Z,65.10
2023-04-26T21:32:57.003Z,65.20
2023-04-26T21:36:00.716Z,64.80
2023-04-26T21:39:03.778Z,64.60
2023-04-26T21:42:06.062Z,64.00
2023-04-26T21:45:09.518Z,64.60
2023-04-26T21:48:12.139Z,63.40
2023-04-26T21:51:14.268Z,63.00
2023-04-26T21:54:16.460Z,62.60
2023-04-26T21:57:20.408Z,62.30
2023-04-26T22:00:22.685Z,62.60
2023-04-26T22:03:27.814Z,61.50
2023-04-26T22:06:32.367Z,61.90
2023-04-26T22:09:34.639Z,61.80
2023-04-26T22:12:36.753Z,62.80
2023-04-26T22:15:39.755Z,66.50
2023-04-26T22:18:41.876Z,65.80
2023-04-26T22:21:44.109Z,65.80
2023-04-26T22:24:46.688Z,66.30
2023-04-26T22:27:48.942Z,64.80
2023-04-26T22:30:51.106Z,62.90
2023-04-26T22:33:53.259Z,62.10
2023-04-26T22:37:01.219Z,61.30
2023-04-26T22:40:11.722Z,59.30
2023-04-26T22:43:13.907Z,59.20
2023-04-26T22:46:17.846Z,60.30
2023-04-26T22:49:20.056Z,60.30
2023-04-26T22:52:31.626Z,60.60
2023-04-26T22:55:34.380Z,60.90
2023-04-26T22:58:36.624Z,61.20
2023-04-26T23:01:38.802Z,61.40
2023-04-26T23:04:41.536Z,62.00
2023-04-26T23:07:44.495Z,62.70
2023-04-26T23:10:46.967Z,62.90
2023-04-26T23:13:53.047Z,63.10
2023-04-26T23:16:55.730Z,64.50
2023-04-26T23:20:00.501Z,65.20
2023-04-26T23:23:02.713Z,66.60
2023-04-26T23:26:08.749Z,67.60
2023-04-26T23:29:12.053Z,70.20
2023-04-26T23:32:14.383Z,72.80
2023-04-26T23:35:16.852Z,73.20
2023-04-26T23:38:19.022Z,75.10
2023-04-26T23:41:21.352Z,76.60
2023-04-26T23:44:23.764Z,76.60
2023-04-26T23:47:25.950Z,77.30
2023-04-26T23:50:28.183Z,77.60
2023-04-26T23:53:30.329Z,79.20
2023-04-26T23:56:35.361Z,79.30
2023-04-26T23:59:37.601Z,81.20
